sensor_id;sensor_type;location;lat;lon;timestamp;temperature;humidity
38854;DHT22;24606;51.992;4.198;2023-09-30T00:03:21;23.50;80.40
38854;DHT22;24606;51.992;4.198;2023-09-30T00:08:24;23.50;80.40
38854;DHT22;24606;51.992;4.198;2023-09-30T00:13:27;23.50;80.20
38854;DHT22;24606;51.992;4.198;2023-09-30T00:18:29;23.50;80.30
38854;DHT22;24606;51.992;4.198;2023-09-30T00:23:31;23.40;80.20
38854;DHT22;24606;51.992;4.198;2023-09-30T00:28:34;23.40;80.50
38854;DHT22;24606;51.992;4.198;2023-09-30T00:33:36;23.40;80.40
38854;DHT22;24606;51.992;4.198;2023-09-30T00:38:38;23.40;80.20
38854;DHT22;24606;51.992;4.198;2023-09-30T00:43:41;23.40;80.20
38854;DHT22;24606;51.992;4.198;2023-09-30T00:48:43;23.40;80.20
38854;DHT22;24606;51.992;4.198;2023-09-30T00:53:45;23.30;80.10
38854;DHT22;24606;51.992;4.198;2023-09-30T00:58:49;23.30;80.40
38854;DHT22;24606;51.992;4.198;2023-09-30T01:03:52;23.30;80.30
38854;DHT22;24606;51.992;4.198;2023-09-30T01:08:54;23.30;80.20
38854;DHT22;24606;51.992;4.198;2023-09-30T01:13:57;23.30;80.10
38854;DHT22;24606;51.992;4.198;2023-09-30T01:19:00;23.30;80.30
38854;DHT22;24606;51.992;4.198;2023-09-30T01:24:04;23.20;80.30
38854;DHT22;24606;51.992;4.198;2023-09-30T01:29:06;23.20;80.30
38854;DHT22;24606;51.992;4.198;2023-09-30T01:34:11;23.20;80.50
38854;DHT22;24606;51.992;4.198;2023-09-30T01:39:14;23.20;80.30
38854;DHT22;24606;51.992;4.198;2023-09-30T01:44:16;23.20;80.20
38854;DHT22;24606;51.992;4.198;2023-09-30T01:49:18;23.20;80.20
38854;DHT22;24606;51.992;4.198;2023-09-30T01:54:21;23.10;80.60
38854;DHT22;24606;51.992;4.198;2023-09-30T01:59:24;23.10;80.00
38854;DHT22;24606;51.992;4.198;2023-09-30T02:04:26;23.10;80.30
38854;DHT22;24606;51.992;4.198;2023-09-30T02:09:29;23.20;80.50
38854;DHT22;24606;51.992;4.198;2023-09-30T02:14:32;23.10;80.40
38854;DHT22;24606;51.992;4.198;2023-09-30T02:19:33;23.10;80.40
38854;DHT22;24606;51.992;4.198;2023-09-30T02:24:36;23.10;80.30
38854;DHT22;24606;51.992;4.198;2023-09-30T02:29:40;23.10;80.20
38854;DHT22;24606;51.992;4.198;2023-09-30T02:34:43;23.10;80.40
38854;DHT22;24606;51.992;4.198;2023-09-30T02:39:46;23.10;81.10
38854;DHT22;24606;51.992;4.198;2023-09-30T02:44:48;23.10;80.70
38854;DHT22;24606;51.992;4.198;2023-09-30T02:49:50;23.00;80.60
38854;DHT22;24606;51.992;4.198;2023-09-30T02:54:53;23.00;80.60
38854;DHT22;24606;51.992;4.198;2023-09-30T03:15:31;22.90;80.70
38854;DHT22;24606;51.992;4.198;2023-09-30T03:20:32;22.90;81.20
38854;DHT22;24606;51.992;4.198;2023-09-30T03:25:34;22.90;81.60
38854;DHT22;24606;51.992;4.198;2023-09-30T03:30:38;23.00;80.80
38854;DHT22;24606;51.992;4.198;2023-09-30T03:35:41;23.00;80.80
38854;DHT22;24606;51.992;4.198;2023-09-30T03:40:44;23.00;80.70
38854;DHT22;24606;51.992;4.198;2023-09-30T03:45:49;23.00;80.80
38854;DHT22;24606;51.992;4.198;2023-09-30T03:50:51;22.90;80.70
38854;DHT22;24606;51.992;4.198;2023-09-30T03:55:55;22.90;80.70
38854;DHT22;24606;51.992;4.198;2023-09-30T04:00:59;23.00;80.40
38854;DHT22;24606;51.992;4.198;2023-09-30T04:06:02;22.90;80.40
38854;DHT22;24606;51.992;4.198;2023-09-30T04:11:04;22.90;80.70
38854;DHT22;24606;51.992;4.198;2023-09-30T04:16:07;22.90;80.50
38854;DHT22;24606;51.992;4.198;2023-09-30T04:21:09;22.90;80.70
38854;DHT22;24606;51.992;4.198;2023-09-30T04:26:12;22.90;80.50
38854;DHT22;24606;51.992;4.198;2023-09-30T04:31:15;22.90;80.50
38854;DHT22;24606;51.992;4.198;2023-09-30T04:36:17;22.90;80.50
38854;DHT22;24606;51.992;4.198;2023-09-30T04:41:20;22.90;80.40
38854;DHT22;24606;51.992;4.198;2023-09-30T04:46:23;22.80;80.20
38854;DHT22;24606;51.992;4.198;2023-09-30T04:51:25;22.80;80.30
38854;DHT22;24606;51.992;4.198;2023-09-30T04:56:28;22.90;80.10
38854;DHT22;24606;51.992;4.198;2023-09-30T05:01:31;22.90;80.10
38854;DHT22;24606;51.992;4.198;2023-09-30T05:06:33;22.90;80.20
38854;DHT22;24606;51.992;4.198;2023-09-30T05:11:35;22.80;80.10
38854;DHT22;24606;51.992;4.198;2023-09-30T05:16:38;22.90;80.00
38854;DHT22;24606;51.992;4.198;2023-09-30T05:21:40;22.80;80.10
38854;DHT22;24606;51.992;4.198;2023-09-30T05:26:41;22.80;80.10
38854;DHT22;24606;51.992;4.198;2023-09-30T05:31:45;22.80;80.20
38854;DHT22;24606;51.992;4.198;2023-09-30T05:36:46;22.90;80.20
38854;DHT22;24606;51.992;4.198;2023-09-30T05:41:48;22.80;80.20
38854;DHT22;24606;51.992;4.198;2023-09-30T05:46:52;22.80;80.20
38854;DHT22;24606;51.992;4.198;2023-09-30T05:51:55;22.80;80.10
38854;DHT22;24606;51.992;4.198;2023-09-30T05:56:58;22.80;80.20
38854;DHT22;24606;51.992;4.198;2023-09-30T06:02:02;22.80;80.30
38854;DHT22;24606;51.992;4.198;2023-09-30T06:07:05;22.80;80.40
38854;DHT22;24606;51.992;4.198;2023-09-30T06:12:07;22.80;80.10
38854;DHT22;24606;51.992;4.198;2023-09-30T06:17:11;22.80;80.40
38854;DHT22;24606;51.992;4.198;2023-09-30T06:22:13;22.80;80.20
38854;DHT22;24606;51.992;4.198;2023-09-30T06:27:15;22.70;80.20
38854;DHT22;24606;51.992;4.198;2023-09-30T06:32:18;22.80;80.20
38854;DHT22;24606;51.992;4.198;2023-09-30T06:37:20;22.80;79.90
38854;DHT22;24606;51.992;4.198;2023-09-30T06:42:22;22.80;79.90
38854;DHT22;24606;51.992;4.198;2023-09-30T06:47:25;22.80;80.00
38854;DHT22;24606;51.992;4.198;2023-09-30T06:52:27;22.80;79.60
38854;DHT22;24606;51.992;4.198;2023-09-30T06:57:29;22.80;79.70
38854;DHT22;24606;51.992;4.198;2023-09-30T07:02:32;22.80;79.70
38854;DHT22;24606;51.992;4.198;2023-09-30T07:07:34;22.80;80.00
38854;DHT22;24606;51.992;4.198;2023-09-30T07:12:38;22.80;79.70
38854;DHT22;24606;51.992;4.198;2023-09-30T07:17:41;22.80;79.60
38854;DHT22;24606;51.992;4.198;2023-09-30T07:22:44;22.50;81.50
38854;DHT22;24606;51.992;4.198;2023-09-30T07:27:46;22.70;80.30
38854;DHT22;24606;51.992;4.198;2023-09-30T07:32:49;22.80;79.90
38854;DHT22;24606;51.992;4.198;2023-09-30T07:37:52;22.80;79.60
38854;DHT22;24606;51.992;4.198;2023-09-30T07:42:54;21.90;85.90
38854;DHT22;24606;51.992;4.198;2023-09-30T07:47:57;22.40;82.60
38854;DHT22;24606;51.992;4.198;2023-09-30T07:53:00;22.00;86.60
38854;DHT22;24606;51.992;4.198;2023-09-30T07:58:02;22.40;82.50
38854;DHT22;24606;51.992;4.198;2023-09-30T08:03:05;22.40;84.60
38854;DHT22;24606;51.992;4.198;2023-09-30T08:08:07;22.60;82.70
38854;DHT22;24606;51.992;4.198;2023-09-30T08:13:09;21.40;91.60
38854;DHT22;24606;51.992;4.198;2023-09-30T08:18:13;21.70;90.10
38854;DHT22;24606;51.992;4.198;2023-09-30T08:23:18;21.80;90.10
38854;DHT22;24606;51.992;4.198;2023-09-30T08:28:20;21.70;90.10
38854;DHT22;24606;51.992;4.198;2023-09-30T08:33:24;21.70;90.40
38854;DHT22;24606;51.992;4.198;2023-09-30T08:38:28;20.90;92.80
38854;DHT22;24606;51.992;4.198;2023-09-30T08:43:31;21.20;92.20
38854;DHT22;24606;51.992;4.198;2023-09-30T08:48:40;21.70;91.20
38854;DHT22;24606;51.992;4.198;2023-09-30T08:53:44;22.60;84.50
38854;DHT22;24606;51.992;4.198;2023-09-30T08:58:47;21.20;91.30
38854;DHT22;24606;51.992;4.198;2023-09-30T09:03:50;19.70;98.00
38854;DHT22;24606;51.992;4.198;2023-09-30T09:08:53;20.00;97.10
38854;DHT22;24606;51.992;4.198;2023-09-30T09:13:55;20.90;95.10
38854;DHT22;24606;51.992;4.198;2023-09-30T09:18:58;21.70;92.30
38854;DHT22;24606;51.992;4.198;2023-09-30T09:24:00;21.30;93.80
38854;DHT22;24606;51.992;4.198;2023-09-30T09:29:03;22.60;90.10
38854;DHT22;24606;51.992;4.198;2023-09-30T09:34:13;23.00;86.70
38854;DHT22;24606;51.992;4.198;2023-09-30T09:39:15;23.10;86.80
38854;DHT22;24606;51.992;4.198;2023-09-30T09:44:19;23.10;86.50
38854;DHT22;24606;51.992;4.198;2023-09-30T09:49:24;23.00;86.70
38854;DHT22;24606;51.992;4.198;2023-09-30T09:54:27;22.80;90.20
38854;DHT22;24606;51.992;4.198;2023-09-30T09:59:30;22.50;90.30
38854;DHT22;24606;51.992;4.198;2023-09-30T10:04:34;22.70;90.80
38854;DHT22;24606;51.992;4.198;2023-09-30T10:09:38;23.00;87.30
38854;DHT22;24606;51.992;4.198;2023-09-30T10:14:41;23.40;85.30
38854;DHT22;24606;51.992;4.198;2023-09-30T10:20:06;23.30;85.90
38854;DHT22;24606;51.992;4.198;2023-09-30T10:25:35;23.50;84.50
38854;DHT22;24606;51.992;4.198;2023-09-30T10:30:37;23.40;85.80
38854;DHT22;24606;51.992;4.198;2023-09-30T10:35:47;22.80;88.10
38854;DHT22;24606;51.992;4.198;2023-09-30T10:40:50;22.30;91.00
38854;DHT22;24606;51.992;4.198;2023-09-30T10:45:52;23.10;79.40
38854;DHT22;24606;51.992;4.198;2023-09-30T10:50:56;22.50;88.70
38854;DHT22;24606;51.992;4.198;2023-09-30T10:56:00;22.70;90.50
38854;DHT22;24606;51.992;4.198;2023-09-30T11:01:02;22.80;79.70
38854;DHT22;24606;51.992;4.198;2023-09-30T11:06:06;22.70;87.70
38854;DHT22;24606;51.992;4.198;2023-09-30T11:11:08;22.00;81.00
38854;DHT22;24606;51.992;4.198;2023-09-30T11:16:10;22.00;90.80
38854;DHT22;24606;51.992;4.198;2023-09-30T11:21:14;21.10;78.40
38854;DHT22;24606;51.992;4.198;2023-09-30T11:26:16;21.40;73.20
38854;DHT22;24606;51.992;4.198;2023-09-30T11:31:17;22.20;86.60
38854;DHT22;24606;51.992;4.198;2023-09-30T11:36:21;22.10;85.40
38854;DHT22;24606;51.992;4.198;2023-09-30T11:41:33;21.30;78.10
38854;DHT22;24606;51.992;4.198;2023-09-30T11:46:48;22.40;75.10
38854;DHT22;24606;51.992;4.198;2023-09-30T11:51:57;21.70;88.00
38854;DHT22;24606;51.992;4.198;2023-09-30T11:57:00;22.50;87.70
38854;DHT22;24606;51.992;4.198;2023-09-30T12:02:03;21.60;88.00
38854;DHT22;24606;51.992;4.198;2023-09-30T12:07:07;21.30;75.40
38854;DHT22;24606;51.992;4.198;2023-09-30T12:12:10;21.80;82.40
38854;DHT22;24606;51.992;4.198;2023-09-30T12:17:14;21.50;90.30
38854;DHT22;24606;51.992;4.198;2023-09-30T12:22:18;21.00;84.00
38854;DHT22;24606;51.992;4.198;2023-09-30T12:27:21;21.00;81.50
38854;DHT22;24606;51.992;4.198;2023-09-30T12:32:23;21.10;90.60
38854;DHT22;24606;51.992;4.198;2023-09-30T12:37:27;21.40;74.50
38854;DHT22;24606;51.992;4.198;2023-09-30T12:42:29;21.30;92.00
38854;DHT22;24606;51.992;4.198;2023-09-30T12:47:31;21.20;81.50
38854;DHT22;24606;51.992;4.198;2023-09-30T12:52:34;21.40;91.10
38854;DHT22;24606;51.992;4.198;2023-09-30T12:57:36;20.50;93.90
38854;DHT22;24606;51.992;4.198;2023-09-30T13:02:38;20.70;92.40
38854;DHT22;24606;51.992;4.198;2023-09-30T13:07:41;21.20;83.40
38854;DHT22;24606;51.992;4.198;2023-09-30T13:12:43;21.10;90.20
38854;DHT22;24606;51.992;4.198;2023-09-30T13:17:45;21.30;87.00
38854;DHT22;24606;51.992;4.198;2023-09-30T13:22:48;21.70;81.50
38854;DHT22;24606;51.992;4.198;2023-09-30T13:27:50;21.10;80.90
38854;DHT22;24606;51.992;4.198;2023-09-30T13:32:52;20.90;82.60
38854;DHT22;24606;51.992;4.198;2023-09-30T13:37:55;21.70;85.30
38854;DHT22;24606;51.992;4.198;2023-09-30T13:42:57;22.00;77.50
38854;DHT22;24606;51.992;4.198;2023-09-30T13:47:59;21.80;88.30
38854;DHT22;24606;51.992;4.198;2023-09-30T13:53:03;21.40;88.60
38854;DHT22;24606;51.992;4.198;2023-09-30T13:58:05;22.50;85.50
38854;DHT22;24606;51.992;4.198;2023-09-30T14:03:07;22.50;85.50
38854;DHT22;24606;51.992;4.198;2023-09-30T14:08:11;22.30;87.70
38854;DHT22;24606;51.992;4.198;2023-09-30T14:13:13;21.30;89.10
38854;DHT22;24606;51.992;4.198;2023-09-30T14:18:15;21.20;76.30
38854;DHT22;24606;51.992;4.198;2023-09-30T14:23:19;20.50;82.20
38854;DHT22;24606;51.992;4.198;2023-09-30T14:28:20;21.20;80.80
38854;DHT22;24606;51.992;4.198;2023-09-30T14:33:22;22.00;90.80
38854;DHT22;24606;51.992;4.198;2023-09-30T14:38:25;21.50;79.30
38854;DHT22;24606;51.992;4.198;2023-09-30T14:43:27;21.80;90.30
38854;DHT22;24606;51.992;4.198;2023-09-30T14:48:30;21.90;78.20
38854;DHT22;24606;51.992;4.198;2023-09-30T14:53:33;22.40;75.80
38854;DHT22;24606;51.992;4.198;2023-09-30T14:58:35;21.80;77.70
38854;DHT22;24606;51.992;4.198;2023-09-30T15:03:37;22.30;90.70
38854;DHT22;24606;51.992;4.198;2023-09-30T15:08:40;22.40;90.90
38854;DHT22;24606;51.992;4.198;2023-09-30T15:13:43;22.10;85.60
38854;DHT22;24606;51.992;4.198;2023-09-30T15:18:46;22.40;90.20
38854;DHT22;24606;51.992;4.198;2023-09-30T15:23:50;23.00;76.50
38854;DHT22;24606;51.992;4.198;2023-09-30T15:28:52;23.90;81.60
38854;DHT22;24606;51.992;4.198;2023-09-30T15:33:54;23.00;80.10
38854;DHT22;24606;51.992;4.198;2023-09-30T15:38:57;22.50;86.50
38854;DHT22;24606;51.992;4.198;2023-09-30T15:49:56;22.80;82.80
38854;DHT22;24606;51.992;4.198;2023-09-30T15:54:59;23.10;86.70
38854;DHT22;24606;51.992;4.198;2023-09-30T16:00:02;23.10;72.60
38854;DHT22;24606;51.992;4.198;2023-09-30T16:05:05;22.20;89.30
38854;DHT22;24606;51.992;4.198;2023-09-30T16:10:09;23.00;88.50
38854;DHT22;24606;51.992;4.198;2023-09-30T16:15:11;23.40;85.20
38854;DHT22;24606;51.992;4.198;2023-09-30T16:20:15;22.40;83.30
38854;DHT22;24606;51.992;4.198;2023-09-30T16:25:20;23.60;84.30
38854;DHT22;24606;51.992;4.198;2023-09-30T16:30:23;23.00;83.70
38854;DHT22;24606;51.992;4.198;2023-09-30T16:35:25;23.00;86.30
38854;DHT22;24606;51.992;4.198;2023-09-30T16:40:28;22.60;80.90
38854;DHT22;24606;51.992;4.198;2023-09-30T16:45:30;21.40;86.90
38854;DHT22;24606;51.992;4.198;2023-09-30T16:50:32;22.50;89.50
38854;DHT22;24606;51.992;4.198;2023-09-30T16:55:35;22.20;82.10
38854;DHT22;24606;51.992;4.198;2023-09-30T17:00:37;21.80;93.40
38854;DHT22;24606;51.992;4.198;2023-09-30T17:05:39;21.80;88.40
38854;DHT22;24606;51.992;4.198;2023-09-30T17:10:43;21.30;80.70
38854;DHT22;24606;51.992;4.198;2023-09-30T17:15:46;23.30;88.00
38854;DHT22;24606;51.992;4.198;2023-09-30T17:20:47;24.30;81.00
38854;DHT22;24606;51.992;4.198;2023-09-30T17:25:51;24.50;77.90
38854;DHT22;24606;51.992;4.198;2023-09-30T17:30:54;24.60;77.30
38854;DHT22;24606;51.992;4.198;2023-09-30T17:35:58;24.50;77.30
38854;DHT22;24606;51.992;4.198;2023-09-30T17:41:03;24.30;76.40
38854;DHT22;24606;51.992;4.198;2023-09-30T17:46:09;23.90;78.10
38854;DHT22;24606;51.992;4.198;2023-09-30T17:51:12;24.20;78.60
38854;DHT22;24606;51.992;4.198;2023-09-30T17:56:17;24.00;79.20
38854;DHT22;24606;51.992;4.198;2023-09-30T18:01:19;24.50;75.80
38854;DHT22;24606;51.992;4.198;2023-09-30T18:06:23;24.60;74.80
38854;DHT22;24606;51.992;4.198;2023-09-30T18:11:26;24.70;74.40
38854;DHT22;24606;51.992;4.198;2023-09-30T18:16:27;24.70;74.30
38854;DHT22;24606;51.992;4.198;2023-09-30T18:21:30;24.70;74.20
38854;DHT22;24606;51.992;4.198;2023-09-30T18:26:33;24.70;74.30
38854;DHT22;24606;51.992;4.198;2023-09-30T18:31:35;24.70;74.40
38854;DHT22;24606;51.992;4.198;2023-09-30T18:36:37;24.70;74.30
38854;DHT22;24606;51.992;4.198;2023-09-30T18:41:40;24.70;74.40
38854;DHT22;24606;51.992;4.198;2023-09-30T18:46:44;24.70;74.40
38854;DHT22;24606;51.992;4.198;2023-09-30T18:51:45;24.70;74.40
38854;DHT22;24606;51.992;4.198;2023-09-30T18:56:48;24.70;74.40
38854;DHT22;24606;51.992;4.198;2023-09-30T19:01:51;24.60;74.40
38854;DHT22;24606;51.992;4.198;2023-09-30T19:06:53;24.60;74.40
38854;DHT22;24606;51.992;4.198;2023-09-30T19:11:56;24.60;74.50
38854;DHT22;24606;51.992;4.198;2023-09-30T19:16:59;24.60;74.50
38854;DHT22;24606;51.992;4.198;2023-09-30T19:22:01;24.50;74.50
38854;DHT22;24606;51.992;4.198;2023-09-30T19:27:04;24.60;74.60
38854;DHT22;24606;51.992;4.198;2023-09-30T19:32:06;24.60;74.40
38854;DHT22;24606;51.992;4.198;2023-09-30T19:37:09;24.50;74.30
38854;DHT22;24606;51.992;4.198;2023-09-30T19:42:12;24.50;74.30
38854;DHT22;24606;51.992;4.198;2023-09-30T19:47:14;24.50;74.30
38854;DHT22;24606;51.992;4.198;2023-09-30T19:52:16;24.50;74.30
38854;DHT22;24606;51.992;4.198;2023-09-30T19:57:19;24.50;74.10
38854;DHT22;24606;51.992;4.198;2023-09-30T20:02:21;24.40;74.80
38854;DHT22;24606;51.992;4.198;2023-09-30T20:07:23;24.40;74.10
38854;DHT22;24606;51.992;4.198;2023-09-30T20:12:26;24.40;74.30
38854;DHT22;24606;51.992;4.198;2023-09-30T20:17:28;24.40;74.20
38854;DHT22;24606;51.992;4.198;2023-09-30T20:22:30;24.30;74.00
38854;DHT22;24606;51.992;4.198;2023-09-30T20:27:33;24.30;73.90
38854;DHT22;24606;51.992;4.198;2023-09-30T20:32:36;24.30;73.90
38854;DHT22;24606;51.992;4.198;2023-09-30T20:37:37;24.30;73.80
38854;DHT22;24606;51.992;4.198;2023-09-30T20:42:40;24.30;73.90
38854;DHT22;24606;51.992;4.198;2023-09-30T20:47:43;24.30;73.90
38854;DHT22;24606;51.992;4.198;2023-09-30T20:52:44;24.30;73.90
38854;DHT22;24606;51.992;4.198;2023-09-30T20:57:52;24.30;73.90
38854;DHT22;24606;51.992;4.198;2023-09-30T21:02:54;24.20;73.70
38854;DHT22;24606;51.992;4.198;2023-09-30T21:07:56;24.30;73.90
38854;DHT22;24606;51.992;4.198;2023-09-30T21:12:59;24.20;73.90
38854;DHT22;24606;51.992;4.198;2023-09-30T21:18:01;24.20;73.90
38854;DHT22;24606;51.992;4.198;2023-09-30T21:23:03;24.20;73.90
38854;DHT22;24606;51.992;4.198;2023-09-30T21:28:06;24.20;74.00
38854;DHT22;24606;51.992;4.198;2023-09-30T21:33:08;24.20;74.20
38854;DHT22;24606;51.992;4.198;2023-09-30T21:38:10;24.20;74.20
38854;DHT22;24606;51.992;4.198;2023-09-30T21:43:13;24.20;74.30
38854;DHT22;24606;51.992;4.198;2023-09-30T21:48:15;24.10;74.40
38854;DHT22;24606;51.992;4.198;2023-09-30T21:53:17;24.10;74.20
38854;DHT22;24606;51.992;4.198;2023-09-30T21:58:20;24.10;74.40
38854;DHT22;24606;51.992;4.198;2023-09-30T22:03:22;24.10;74.50
38854;DHT22;24606;51.992;4.198;2023-09-30T22:08:25;24.10;74.60
38854;DHT22;24606;51.992;4.198;2023-09-30T22:13:28;24.10;74.50
38854;DHT22;24606;51.992;4.198;2023-09-30T22:18:30;24.10;74.50
38854;DHT22;24606;51.992;4.198;2023-09-30T22:23:32;24.00;74.60
38854;DHT22;24606;51.992;4.198;2023-09-30T22:28:35;24.10;74.60
38854;DHT22;24606;51.992;4.198;2023-09-30T22:33:37;24.10;74.70
38854;DHT22;24606;51.992;4.198;2023-09-30T22:38:38;24.00;74.70
38854;DHT22;24606;51.992;4.198;2023-09-30T22:43:42;24.00;74.70
38854;DHT22;24606;51.992;4.198;2023-09-30T22:48:44;24.00;74.70
38854;DHT22;24606;51.992;4.198;2023-09-30T22:53:46;24.00;74.70
38854;DHT22;24606;51.992;4.198;2023-09-30T22:58:50;24.00;74.90
38854;DHT22;24606;51.992;4.198;2023-09-30T23:03:52;24.00;75.00
38854;DHT22;24606;51.992;4.198;2023-09-30T23:08:54;23.90;75.10
38854;DHT22;24606;51.992;4.198;2023-09-30T23:13:57;23.90;75.00
38854;DHT22;24606;51.992;4.198;2023-09-30T23:18:59;23.90;75.00
38854;DHT22;24606;51.992;4.198;2023-09-30T23:24:05;23.90;75.30
38854;DHT22;24606;51.992;4.198;2023-09-30T23:29:10;23.90;75.10
38854;DHT22;24606;51.992;4.198;2023-09-30T23:34:13;23.90;75.30
38854;DHT22;24606;51.992;4.198;2023-09-30T23:39:14;23.90;75.30
38854;DHT22;24606;51.992;4.198;2023-09-30T23:44:20;23.70;75.00
38854;DHT22;24606;51.992;4.198;2023-09-30T23:49:22;23.80;75.70
38854;DHT22;24606;51.992;4.198;2023-09-30T23:54:27;23.80;76.20
38854;DHT22;24606;51.992;4.198;2023-09-30T23:59:32;23.70;76.80
